Watertown, SD

4:03 PM CST on February 10, 2016 (GMT -0600)
Watertown Municipal | | Change Station
CLOSE
Current Station
Airport
Location: Watertown,
Elevation: 1749 ft
Nearby Weather Stations

Elev 1749 ft 44.90 °N, 97.15 °W | Updated 10 minutes ago

Overcast
Overcast
12 °F
Feels Like -2 °F
N
12
Wind Variable Wind from East

Today
High -- | Low -- °F
--% Chance of Precip.
Yesterday
High -- | Low -- °F
Precip. -- in
Pressure 30.13 in
Visibility 10.0 miles
Clouds Scattered Clouds 1800 ft
Overcast 2600 ft
Windchill -2 °F
Dew Point 5 °F
Humidity 73%
Rainfall 0.07 in
Snow Depth Not available.
7:37 AM 5:49 PM
Waxing Crescent, 7% visible
METAR KATY 102153Z AUTO 08010KT 10SM SCT018 OVC026 M11/M15 A3002 RMK AO2 SLP202 T11111150
Pressure 30.13 in
Visibility 10.0 miles
Clouds Scattered Clouds 1800 ft
Overcast 2600 ft
Windchill -2 °F
Dew Point 5 °F
Humidity 73%
Rainfall 0.07 in
Snow Depth Not available.
7:37 AM 5:49 PM
Waxing Crescent, 7% visible
METAR KATY 102153Z AUTO 08010KT 10SM SCT018 OVC026 M11/M15 A3002 RMK AO2 SLP202 T11111150

10-Day Weather Forecast

Almanac

Astronomy

Feb. 10, 2016 Rise Set
Actual Time
Civil Twilight
Nautical Twilight
Astronomical Twilight
Moon
Length of Visible Light
Length of Day
Tomorrow will be .
, % of the Moon is Illuminated

Today's Extremes

State Highs State Lows

Community

WunderPhotos

Upload Photos

1,891,959 photos uploaded!

WunderBlog® & News

Nearby

Air Quality

  Air Quality AQ Index Pollutant
Not available.

Snow Depth

Station Depth Elevation

Earthquake Activity

City Distance Mag. Time & Date
Minimum magnitude displayed is 2.5.

Coastal Water Temperatures

Place Temperature

Stations

Nearby Weather Stations

Station Location Temp. Windchill Dew Point Humidity Wind Precip. Elev Updated Type
                   

Watches & Warnings

There are currently no watches in effect.